Time;durP1;ratioP1;P1;durP2;ratioP2;P2;SDS_P1;SDS_P2;PMS_P1;PMS_P2;Temp;Humidity;BMP_temperature;BMP_pressure;BME280_temperature;BME280_humidity;BME280_pressure;Samples;Min_cycle;Max_cycle;Signal;HPM_P1;HPM_P2
2023/05/22 00:00:22;;;;;;;4.20;1.58;;;;;;;13.90;61.45;101509.63;2099279;28;20037;-67
2023/05/22 00:01:25;;;;;;;7.82;2.13;;;;;;;13.97;61.20;101514.72;2107307;28;20118;-67
2023/05/22 00:02:28;;;;;;;2.45;1.60;;;;;;;14.00;61.05;101514.16;2099503;28;20037;-67
2023/05/22 00:03:31;;;;;;;5.25;2.05;;;;;;;14.00;60.86;101511.47;2090127;28;20885;-67
2023/05/22 00:04:33;;;;;;;2.78;1.70;;;;;;;14.02;61.06;101511.16;2090998;28;20892;-67
2023/05/22 00:05:37;;;;;;;4.20;1.80;;;;;;;14.05;60.94;101511.41;2090663;28;20026;-67
2023/05/22 00:06:43;;;;;;;8.65;2.50;;;;;;;14.05;60.71;101511.41;2091638;28;20029;-67
2023/05/22 00:07:45;;;;;;;3.92;2.10;;;;;;;14.05;60.50;101510.63;2090694;28;20155;-67
2023/05/22 00:08:47;;;;;;;4.78;1.85;;;;;;;14.03;60.42;101513.63;2066516;28;20101;-67
2023/05/22 00:09:49;;;;;;;5.63;1.80;;;;;;;13.96;60.35;101504.97;2082790;28;20097;-67
2023/05/22 00:10:51;;;;;;;5.18;2.00;;;;;;;13.97;60.02;101508.50;2099216;28;20021;-67
2023/05/22 00:11:53;;;;;;;3.85;2.05;;;;;;;14.03;59.77;101510.91;2098909;28;20117;-67
2023/05/22 00:12:54;;;;;;;4.32;1.95;;;;;;;14.07;59.83;101513.88;2098695;28;20087;-67
2023/05/22 00:13:56;;;;;;;5.22;1.55;;;;;;;14.09;59.40;101509.81;2098841;28;20933;-67
2023/05/22 00:15:00;;;;;;;4.43;1.85;;;;;;;14.08;59.63;101507.34;2090998;28;20132;-67
2023/05/22 00:16:03;;;;;;;5.00;1.90;;;;;;;14.14;59.31;101509.75;2090796;28;20081;-67
2023/05/22 00:17:05;;;;;;;4.68;2.83;;;;;;;14.20;59.09;101504.31;2082897;28;20811;-67
2023/05/22 00:18:07;;;;;;;4.65;1.77;;;;;;;14.27;58.51;101513.72;2082465;28;20022;-67
2023/05/22 00:19:12;;;;;;;4.05;1.63;;;;;;;14.33;58.31;101509.09;2090670;28;20030;-67
2023/05/22 00:20:14;;;;;;;7.20;1.67;;;;;;;14.37;58.32;101513.69;2090631;28;20028;-68
2023/05/22 00:21:15;;;;;;;4.88;1.90;;;;;;;14.39;57.94;101505.28;2090690;28;20893;-67
2023/05/22 00:22:17;;;;;;;2.70;1.90;;;;;;;14.48;58.35;101509.00;2090661;28;20211;-68
2023/05/22 00:23:19;;;;;;;4.95;2.00;;;;;;;14.52;58.34;101507.38;2082525;28;20156;-68
2023/05/22 00:24:22;;;;;;;5.90;1.60;;;;;;;14.54;58.28;101507.91;2098784;28;20041;-68
2023/05/22 00:25:23;;;;;;;3.00;1.83;;;;;;;14.48;58.34;101511.72;2098688;28;20889;-68
2023/05/22 00:26:25;;;;;;;2.70;1.58;;;;;;;14.48;58.53;101502.78;2099286;28;20037;-68
2023/05/22 00:27:27;;;;;;;8.38;2.00;;;;;;;14.48;58.60;101509.00;2107103;28;20036;-68
2023/05/22 00:28:28;;;;;;;7.10;1.80;;;;;;;14.45;58.52;101504.16;2090253;28;20744;-68
2023/05/22 00:29:30;;;;;;;4.43;1.80;;;;;;;14.45;58.49;101509.56;2074033;28;20034;-68
2023/05/22 00:30:36;;;;;;;5.30;1.67;;;;;;;14.42;58.87;101498.50;2083127;28;20144;-68
2023/05/22 00:31:38;;;;;;;3.65;1.80;;;;;;;14.40;59.03;101506.09;2082586;28;20049;-68
2023/05/22 00:40:43;;;;;;;5.97;1.75;;;;;;;14.22;60.08;101497.56;2091047;28;21257;-68
2023/05/22 00:41:45;;;;;;;8.30;1.83;;;;;;;14.23;60.06;101495.66;2098581;28;20278;-68
2023/05/22 00:42:46;;;;;;;3.35;1.85;;;;;;;14.23;59.70;101492.94;2090620;28;20188;-68
2023/05/22 00:43:50;;;;;;;5.78;2.08;;;;;;;14.19;59.51;101494.59;2082080;28;21328;-68
2023/05/22 00:44:51;;;;;;;4.10;1.77;;;;;;;14.19;59.71;101495.41;2090513;28;20022;-68
2023/05/22 00:45:53;;;;;;;2.78;1.70;;;;;;;14.19;59.66;101505.44;2107017;28;20094;-67
2023/05/22 00:46:58;;;;;;;4.20;2.00;;;;;;;14.19;59.53;101505.44;2101477;28;20026;-67
2023/05/22 00:47:59;;;;;;;4.78;2.10;;;;;;;14.19;59.55;101495.41;2115106;28;20029;-68
2023/05/22 00:49:04;;;;;;;4.13;1.73;;;;;;;14.20;60.11;101496.22;2106219;28;20037;-68
2023/05/22 00:50:08;;;;;;;4.07;2.05;;;;;;;14.18;60.32;101498.38;2098500;28;20033;-68
2023/05/22 00:51:10;;;;;;;3.65;1.90;;;;;;;14.09;60.24;101495.44;2090300;28;20108;-67
2023/05/22 00:52:16;;;;;;;2.97;1.92;;;;;;;14.05;60.35;101487.09;2082097;28;20780;-68
2023/05/22 00:53:22;;;;;;;5.97;1.70;;;;;;;14.05;60.41;101489.78;2090348;28;20927;-68
2023/05/22 00:54:29;;;;;;;5.82;1.70;;;;;;;14.08;60.41;101491.94;2099243;28;20028;-68
2023/05/22 00:55:31;;;;;;;3.08;1.80;;;;;;;14.07;60.52;101493.03;2098350;28;20139;-68
2023/05/22 00:56:34;;;;;;;3.40;1.95;;;;;;;14.10;60.45;101488.97;2089785;28;20030;-67
2023/05/22 00:57:40;;;;;;;5.07;1.92;;;;;;;14.11;60.74;101494.09;2089762;28;20048;-68
2023/05/22 00:58:42;;;;;;;6.63;1.95;;;;;;;14.13;60.82;101494.63;2098357;28;20045;-67
2023/05/22 00:59:45;;;;;;;4.82;1.70;;;;;;;14.12;60.66;101484.91;2089830;28;20128;-67
2023/05/22 01:00:47;;;;;;;7.43;1.92;;;;;;;14.11;60.17;101488.69;2073612;28;20811;-67
2023/05/22 01:01:48;;;;;;;4.53;1.90;;;;;;;14.14;60.33;101482.72;2074500;28;20196;-67
2023/05/22 01:02:50;;;;;;;3.70;1.83;;;;;;;14.16;60.38;101489.75;2090444;28;20034;-67
2023/05/22 01:03:52;;;;;;;4.32;2.10;;;;;;;14.20;60.07;101475.38;2098623;28;20025;-67
2023/05/22 01:04:57;;;;;;;3.45;1.98;;;;;;;14.25;59.71;101474.53;2099212;28;20076;-67
2023/05/22 01:05:57;;;;;;;3.65;1.88;;;;;;;14.25;59.56;101478.06;2082234;28;20048;-67
2023/05/22 01:07:01;;;;;;;3.35;2.00;;;;;;;14.16;59.65;101468.91;2074074;28;20050;-67
2023/05/22 01:08:05;;;;;;;2.95;1.70;;;;;;;14.27;60.11;101485.88;2085618;28;20040;-67
2023/05/22 01:09:07;;;;;;;3.50;1.88;;;;;;;14.27;60.12;101477.75;2098797;28;20041;-67
2023/05/22 01:10:10;;;;;;;4.43;1.90;;;;;;;14.26;59.93;101484.28;2082103;28;20038;-67
2023/05/22 01:11:17;;;;;;;5.03;2.50;;;;;;;14.29;59.77;101481.00;2100059;27;20044;-67
2023/05/22 01:12:36;;;;;;;9.30;2.20;;;;;;;14.36;59.15;101485.00;2103490;28;20037;-67
2023/05/22 01:13:50;;;;;;;;;;;;;;;14.40;59.22;101482.53;2095874;28;20045;-67
2023/05/22 01:15:05;;;;;;;5.10;2.28;;;;;;;14.40;59.43;101485.25;2107344;28;19954;-67
2023/05/22 01:16:45;;;;;;;5.47;2.13;;;;;;;14.41;59.46;101472.53;2098870;28;20851;-67
2023/05/22 01:18:11;;;;;;;5.60;2.63;;;;;;;14.39;59.17;101478.22;2085926;28;20188;-67
2023/05/22 01:19:31;;;;;;;6.18;2.67;;;;;;;14.36;59.61;101476.09;2101927;28;20037;-67
2023/05/22 01:20:42;;;;;;;6.55;2.72;;;;;;;14.35;59.79;101477.19;2092979;28;20033;-67
2023/05/22 01:22:07;;;;;;;3.70;2.00;;;;;;;14.36;59.71;101476.88;2099697;28;20028;-69
2023/05/22 01:23:19;;;;;;;4.90;2.35;;;;;;;14.41;59.57;101475.22;2102090;28;20102;-69
2023/05/22 01:24:42;;;;;;;8.75;2.17;;;;;;;14.43;59.47;101478.47;2098535;28;20120;-69
2023/05/22 01:26:12;;;;;;;5.70;2.05;;;;;;;14.39;59.39;101478.22;2100024;28;21229;-69
2023/05/22 01:27:24;;;;;;;7.00;2.50;;;;;;;14.46;59.01;101484.13;2102968;28;20024;-69
2023/05/22 01:28:27;;;;;;;5.88;2.35;;;;;;;14.48;59.07;101481.94;2092013;28;20037;-68
2023/05/22 01:29:55;;;;;;;5.05;2.28;;;;;;;14.49;59.06;101478.16;2082066;28;21309;-68
2023/05/22 01:31:15;;;;;;;8.07;2.47;;;;;;;14.46;59.69;101484.13;2098197;28;20079;-68
2023/05/22 01:32:21;;;;;;;7.77;2.17;;;;;;;14.40;60.16;101498.78;2106763;28;20835;-68
2023/05/22 01:33:26;;;;;;;4.28;2.38;;;;;;;14.34;59.73;101486.38;2099539;28;20219;-69
2023/05/22 01:34:29;;;;;;;5.85;2.60;;;;;;;14.29;59.86;101479.09;2098508;28;20040;-69
2023/05/22 01:35:34;;;;;;;7.63;2.55;;;;;;;14.29;60.00;101489.94;2090171;28;20041;-69
2023/05/22 01:36:37;;;;;;;3.92;2.15;;;;;;;14.35;59.96;101482.59;2082968;28;20033;-69
2023/05/22 01:37:39;;;;;;;3.17;2.05;;;;;;;14.40;59.94;101490.66;2090871;28;20061;-68
2023/05/22 01:38:42;;;;;;;5.78;2.60;;;;;;;14.41;59.75;101477.94;2098730;28;20834;-68
2023/05/22 01:39:45;;;;;;;4.32;2.22;;;;;;;14.43;59.81;101483.88;2090492;28;20037;-69
2023/05/22 01:40:47;;;;;;;5.60;2.42;;;;;;;14.43;60.08;101478.47;2082296;28;20042;-69
2023/05/22 01:41:52;;;;;;;4.25;2.20;;;;;;;14.37;60.37;101481.22;2091093;28;20072;-69
2023/05/22 01:42:54;;;;;;;5.18;2.30;;;;;;;14.31;60.71;101478.81;2098038;28;20025;-69
2023/05/22 01:43:56;;;;;;;4.68;2.22;;;;;;;14.33;60.83;101479.34;2090318;28;20034;-68
2023/05/22 01:44:58;;;;;;;8.18;2.33;;;;;;;14.35;60.67;101482.59;2098412;28;20025;-68
2023/05/22 01:46:00;;;;;;;5.63;2.40;;;;;;;14.31;60.91;101473.41;2081896;28;20140;-68
2023/05/22 01:47:04;;;;;;;3.72;2.13;;;;;;;14.36;60.83;101478.78;2090007;28;20950;-68
2023/05/22 01:48:06;;;;;;;7.65;2.78;;;;;;;14.37;60.71;101480.41;2098375;28;20045;-68
2023/05/22 01:49:08;;;;;;;4.05;2.38;;;;;;;14.36;60.65;101474.19;2081836;28;20084;-68
2023/05/22 01:50:10;;;;;;;4.00;2.58;;;;;;;14.35;60.53;101471.78;2081989;28;20033;-68
2023/05/22 01:51:18;;;;;;;5.53;2.70;;;;;;;14.37;60.39;101485.81;2090249;28;20095;-68
2023/05/22 01:52:47;;;;;;;4.93;2.85;;;;;;;14.37;60.23;101472.28;2083178;28;20864;-68
2023/05/22 01:54:04;;;;;;;4.82;2.40;;;;;;;14.35;60.53;101469.06;2097728;28;20079;-68
2023/05/22 01:55:39;;;;;;;4.45;2.30;;;;;;;14.39;60.49;101475.53;2098307;28;20079;-67
2023/05/22 01:56:54;;;;;;;9.23;2.50;;;;;;;14.42;60.40;101472.25;2077128;28;20082;-68
2023/05/22 01:58:10;;;;;;;3.97;2.50;;;;;;;14.38;60.44;101474.72;2083777;28;20227;-67
2023/05/22 01:59:18;;;;;;;5.32;2.60;;;;;;;14.38;60.62;101476.63;2079104;28;20156;-68
2023/05/22 02:00:23;;;;;;;4.43;2.60;;;;;;;14.37;60.57;101474.97;2091217;28;20036;-68
2023/05/22 02:01:27;;;;;;;11.48;2.60;;;;;;;14.35;60.59;101474.47;2089868;28;20073;-68
2023/05/22 02:02:31;;;;;;;6.47;2.40;;;;;;;14.34;61.00;101475.53;2090937;28;20026;-68
2023/05/22 02:03:36;;;;;;;8.57;2.65;;;;;;;14.33;60.73;101474.75;2089819;28;20979;-68
2023/05/22 02:04:41;;;;;;;7.25;2.70;;;;;;;14.34;60.71;101470.13;2082620;28;20220;-68
2023/05/22 02:05:47;;;;;;;6.53;2.47;;;;;;;14.33;60.60;101473.94;2106946;28;20021;-68
2023/05/22 02:06:52;;;;;;;5.30;2.50;;;;;;;14.29;60.90;101471.00;2097253;28;20846;-68
2023/05/22 02:07:59;;;;;;;6.97;2.55;;;;;;;14.27;60.82;101473.16;2078473;28;20082;-68
2023/05/22 02:09:02;;;;;;;4.55;2.60;;;;;;;14.26;60.96;101468.84;2100581;28;20036;-68
2023/05/22 02:10:06;;;;;;;6.38;2.90;;;;;;;14.25;60.83;101466.41;2098379;28;20048;-68
2023/05/22 02:11:11;;;;;;;6.53;2.70;;;;;;;14.23;60.81;101468.59;2099321;28;20072;-69
2023/05/22 02:12:14;;;;;;;4.88;2.22;;;;;;;14.24;60.73;101470.22;2110833;28;20948;-69
2023/05/22 02:13:18;;;;;;;4.28;2.40;;;;;;;14.24;61.13;101467.50;2090039;28;20140;-68
2023/05/22 02:14:21;;;;;;;4.22;2.65;;;;;;;14.24;61.30;101481.03;2099104;28;20151;-68
2023/05/22 02:15:25;;;;;;;4.18;2.58;;;;;;;14.20;61.36;101469.97;2097867;28;20033;-68
2023/05/22 02:16:29;;;;;;;5.50;2.47;;;;;;;14.19;61.32;101472.97;2089851;28;20045;-68
2023/05/22 02:17:33;;;;;;;5.93;2.58;;;;;;;14.19;61.13;101472.97;2089398;28;20029;-68
2023/05/22 02:18:34;;;;;;;6.20;2.40;;;;;;;14.17;61.37;101481.34;2091164;28;20029;-68
2023/05/22 02:19:36;;;;;;;4.10;2.25;;;;;;;14.16;61.47;101481.63;2098399;28;20124;-68
2023/05/22 02:20:37;;;;;;;9.85;2.25;;;;;;;14.16;61.78;101468.13;2089936;28;20044;-69
2023/05/22 02:21:39;;;;;;;3.47;2.22;;;;;;;14.19;62.02;101467.56;2098189;28;20028;-69
2023/05/22 02:22:45;;;;;;;4.68;2.75;;;;;;;14.22;61.98;101467.81;2081652;28;20102;-69
2023/05/22 02:23:47;;;;;;;6.35;2.50;;;;;;;14.20;61.43;101463.75;2082664;28;20881;-70
2023/05/22 02:24:49;;;;;;;3.92;2.45;;;;;;;14.20;61.72;101469.16;2090131;28;20859;-69
2023/05/22 02:25:51;;;;;;;4.43;2.60;;;;;;;14.20;61.69;101463.75;2089823;28;20038;-71
2023/05/22 02:26:56;;;;;;;4.00;2.40;;;;;;;14.19;61.76;101468.34;2098186;28;20033;-71
2023/05/22 02:27:59;;;;;;;8.27;2.78;;;;;;;14.16;61.73;101463.50;2098336;28;20151;-71
2023/05/22 02:29:01;;;;;;;4.63;2.42;;;;;;;14.19;61.76;101471.06;2081407;28;20073;-69
2023/05/22 02:30:05;;;;;;;3.85;2.30;;;;;;;14.22;61.60;101466.97;2089947;28;20037;-69
2023/05/22 02:31:08;;;;;;;4.88;2.33;;;;;;;14.23;61.63;101468.59;2090338;28;20123;-70
2023/05/22 02:32:09;;;;;;;5.72;2.42;;;;;;;14.25;61.69;101466.41;2089720;28;20076;-70
2023/05/22 02:33:16;;;;;;;4.55;2.15;;;;;;;14.24;61.74;101464.81;2081740;28;20136;-70
2023/05/22 02:34:20;;;;;;;4.93;2.42;;;;;;;14.24;61.73;101465.59;2082666;28;20021;-69
2023/05/22 02:35:24;;;;;;;2.95;2.25;;;;;;;14.25;61.62;101466.41;2081786;28;20049;-69
2023/05/22 02:36:29;;;;;;;3.35;2.20;;;;;;;14.22;61.93;101464.25;2082693;28;20022;-69
2023/05/22 02:37:34;;;;;;;5.50;2.30;;;;;;;14.18;62.19;101468.63;2082216;28;20044;-69
2023/05/22 02:38:35;;;;;;;6.28;2.42;;;;;;;14.13;62.64;101470.28;2074197;28;20177;-69
2023/05/22 02:39:37;;;;;;;6.70;2.13;;;;;;;14.07;62.47;101467.88;2081522;28;20042;-68
2023/05/22 02:40:43;;;;;;;4.75;2.25;;;;;;;14.07;63.21;101470.59;2082964;28;20026;-69
2023/05/22 02:41:48;;;;;;;3.42;2.30;;;;;;;14.08;62.96;101461.38;2091100;28;20084;-68
2023/05/22 02:42:52;;;;;;;4.70;2.15;;;;;;;14.05;63.13;101464.66;2081900;28;20026;-68
2023/05/22 02:43:55;;;;;;;3.92;2.40;;;;;;;14.02;63.04;101457.09;2073940;28;20876;-68
2023/05/22 02:44:57;;;;;;;4.05;2.33;;;;;;;13.97;63.14;101466.06;2073732;28;20030;-68
2023/05/22 02:45:59;;;;;;;3.65;2.50;;;;;;;13.97;62.86;101466.06;2073709;28;20034;-67
2023/05/22 02:47:05;;;;;;;3.20;2.30;;;;;;;13.96;62.59;101464.41;2085220;28;20893;-67
2023/05/22 02:48:06;;;;;;;4.65;2.50;;;;;;;13.96;62.30;101458.22;2089105;28;20049;-67
2023/05/22 02:49:08;;;;;;;4.88;2.20;;;;;;;13.94;62.45;101455.78;2073475;28;20058;-67
2023/05/22 02:50:10;;;;;;;3.55;2.30;;;;;;;13.96;62.72;101458.22;2098263;28;20027;-67
2023/05/22 02:51:12;;;;;;;4.82;2.30;;;;;;;13.97;62.82;101451.72;2098043;28;20033;-67
2023/05/22 02:52:14;;;;;;;4.00;2.30;;;;;;;14.02;63.01;101463.31;2089972;28;20765;-67
2023/05/22 02:53:16;;;;;;;5.13;2.35;;;;;;;14.05;63.09;101461.94;2089580;28;20045;-67
2023/05/22 02:54:18;;;;;;;7.20;2.33;;;;;;;14.04;63.19;101453.03;2090100;28;20017;-67
2023/05/22 02:55:21;;;;;;;5.25;2.70;;;;;;;14.03;63.49;101459.53;2089395;28;20025;-67
2023/05/22 02:56:23;;;;;;;4.72;2.15;;;;;;;14.02;63.13;101452.50;2082155;28;20037;-67
2023/05/22 02:57:27;;;;;;;2.72;2.08;;;;;;;14.03;63.16;101464.94;2081377;28;20785;-67
2023/05/22 02:58:29;;;;;;;6.43;2.88;;;;;;;14.02;62.73;101462.50;2081840;28;20034;-67
2023/05/22 02:59:31;;;;;;;4.75;2.60;;;;;;;14.01;62.47;101461.69;2073146;28;20105;-67
2023/05/22 03:00:33;;;;;;;5.47;2.42;;;;;;;14.01;62.44;101452.78;2082027;28;20026;-67
2023/05/22 03:01:35;;;;;;;5.85;2.53;;;;;;;14.03;62.43;101450.59;2089910;28;20018;-67
2023/05/22 03:02:37;;;;;;;7.72;2.33;;;;;;;14.03;62.31;101459.53;2098547;28;20055;-67
2023/05/22 03:03:39;;;;;;;4.68;2.50;;;;;;;14.07;62.23;101455.16;2081275;28;20835;-67
2023/05/22 03:04:40;;;;;;;6.03;2.38;;;;;;;14.12;62.14;101457.03;2073207;28;20777;-67
2023/05/22 03:05:44;;;;;;;5.90;2.40;;;;;;;14.21;61.83;101452.63;2089471;28;20025;-67
2023/05/22 03:06:46;;;;;;;6.60;2.00;;;;;;;14.31;61.23;101457.16;2081746;28;20030;-67
2023/05/22 03:07:52;;;;;;;5.63;2.60;;;;;;;14.34;61.17;101457.44;2094193;28;20044;-67
2023/05/22 03:08:54;;;;;;;9.27;2.55;;;;;;;14.38;60.85;101450.38;2090196;28;20080;-67
2023/05/22 03:09:56;;;;;;;3.83;2.53;;;;;;;14.44;61.27;101451.16;2082984;28;20030;-67
2023/05/22 03:10:59;;;;;;;4.20;2.35;;;;;;;14.47;60.98;101453.28;2091517;28;20037;-68
2023/05/22 03:12:01;;;;;;;10.95;2.70;;;;;;;14.49;61.47;101461.91;2106375;28;20815;-68
2023/05/22 03:13:05;;;;;;;5.32;2.80;;;;;;;14.52;61.54;101455.16;2082992;28;20038;-69
2023/05/22 03:14:07;;;;;;;4.20;2.60;;;;;;;14.55;61.44;101450.00;2075858;28;20125;-68
2023/05/22 03:15:11;;;;;;;7.43;2.40;;;;;;;14.55;61.60;101455.41;2091423;28;20048;-69
2023/05/22 03:16:14;;;;;;;10.30;2.60;;;;;;;14.53;61.28;101452.19;2099629;28;20025;-69
2023/05/22 03:17:19;;;;;;;4.47;2.70;;;;;;;14.54;61.48;101453.00;2082736;28;20775;-69
2023/05/22 03:18:24;;;;;;;7.10;2.47;;;;;;;14.53;61.42;101446.78;2083384;28;20022;-68
2023/05/22 03:19:25;;;;;;;6.07;2.50;;;;;;;14.56;61.16;101451.63;2075344;28;20152;-68
2023/05/22 03:20:27;;;;;;;5.03;2.60;;;;;;;14.58;61.20;101454.84;2083179;28;20148;-67
2023/05/22 03:21:32;;;;;;;6.30;2.58;;;;;;;14.60;61.41;101452.66;2108303;28;20860;-68
2023/05/22 03:22:34;;;;;;;5.32;2.70;;;;;;;14.63;61.48;101450.47;2098870;28;20037;-67
2023/05/22 03:23:39;;;;;;;4.30;1.80;;;;;;;14.68;61.18;101448.53;2075679;28;20785;-68
2023/05/22 03:24:43;;;;;;;5.28;2.60;;;;;;;14.69;61.09;101450.16;2082923;28;20148;-67
2023/05/22 03:25:46;;;;;;;6.82;2.83;;;;;;;14.72;61.24;101448.75;2084214;28;20022;-67
2023/05/22 03:26:48;;;;;;;7.35;2.95;;;;;;;14.77;61.25;101451.44;2091237;28;20040;-67
2023/05/22 03:27:56;;;;;;;4.47;2.45;;;;;;;14.81;61.02;101447.06;2075363;28;20860;-67
2023/05/22 03:29:01;;;;;;;6.32;2.40;;;;;;;14.83;61.21;101453.00;2067794;28;20124;-67
2023/05/22 03:30:07;;;;;;;4.40;2.30;;;;;;;14.84;61.36;101446.47;2075489;28;20124;-67
2023/05/22 03:31:11;;;;;;;6.28;2.45;;;;;;;14.87;61.77;101440.50;2083541;28;20037;-67
2023/05/22 03:32:29;;;;;;;6.75;2.42;;;;;;;14.92;61.71;101445.88;2080048;28;20022;-67
2023/05/22 03:33:32;;;;;;;4.05;2.50;;;;;;;14.94;61.63;101446.41;2082896;28;20045;-67
2023/05/22 03:34:34;;;;;;;5.75;2.47;;;;;;;14.97;61.39;101450.41;2074776;28;20046;-67
2023/05/22 03:35:38;;;;;;;6.30;2.50;;;;;;;15.00;61.33;101441.72;2091082;28;20091;-69
2023/05/22 03:36:40;;;;;;;4.78;2.25;;;;;;;15.02;61.14;101445.78;2090994;28;20065;-70
2023/05/22 03:37:44;;;;;;;10.00;3.50;;;;;;;15.02;60.95;101440.34;2099411;28;20079;-70
2023/05/22 03:38:49;;;;;;;6.60;2.53;;;;;;;15.06;61.52;101460.34;2091862;28;20038;-70
2023/05/22 03:39:53;;;;;;;7.45;2.40;;;;;;;15.06;61.33;101438.69;2082341;28;20813;-70
2023/05/22 03:41:00;;;;;;;6.38;2.78;;;;;;;15.11;61.45;101445.97;2093364;28;20026;-71
2023/05/22 03:42:04;;;;;;;5.95;2.25;;;;;;;15.19;61.43;101447.22;2090916;28;20140;-71
2023/05/22 03:43:06;;;;;;;11.65;2.40;;;;;;;15.22;61.50;101442.03;2083056;28;20040;-71
2023/05/22 03:44:10;;;;;;;6.18;2.25;;;;;;;15.26;61.58;101447.69;2082654;28;20018;-72
2023/05/22 03:45:12;;;;;;;7.65;2.15;;;;;;;15.32;61.76;101448.44;2083186;28;20030;-72
2023/05/22 03:46:16;;;;;;;3.85;2.45;;;;;;;15.33;62.07;101441.94;2098445;28;20021;-72
2023/05/22 03:47:19;;;;;;;4.82;2.20;;;;;;;15.35;62.29;101448.66;2099505;28;20045;-71
2023/05/22 03:48:23;;;;;;;4.10;2.20;;;;;;;15.35;62.21;101454.06;2082974;28;20184;-71
2023/05/22 03:49:27;;;;;;;3.22;2.15;;;;;;;15.41;62.39;101450.22;2091669;28;20025;-72
2023/05/22 03:50:34;;;;;;;3.17;2.22;;;;;;;15.45;62.27;101442.34;2092143;28;20025;-70
2023/05/22 03:51:39;;;;;;;4.82;2.60;;;;;;;15.48;62.27;101442.56;2107775;28;20884;-70
2023/05/22 03:52:40;;;;;;;3.60;2.35;;;;;;;15.51;61.94;101439.28;2091139;28;20034;-68
2023/05/22 03:53:42;;;;;;;5.30;2.35;;;;;;;15.53;61.45;101442.47;2091204;28;20064;-68
2023/05/22 03:54:45;;;;;;;7.90;2.58;;;;;;;15.59;61.77;101445.13;2099392;28;20033;-68
2023/05/22 03:55:46;;;;;;;4.97;2.25;;;;;;;15.66;61.77;101448.28;2082625;28;20037;-70
2023/05/22 03:56:48;;;;;;;25.42;3.10;;;;;;;15.70;61.73;101452.09;2082673;28;20022;-70
2023/05/22 03:57:55;;;;;;;4.55;2.42;;;;;;;15.74;61.79;101447.69;2075334;28;20070;-70
2023/05/22 03:58:57;;;;;;;6.40;2.40;;;;;;;15.80;61.98;101451.94;2092029;28;20035;-69
2023/05/22 04:00:05;;;;;;;6.57;2.58;;;;;;;15.86;61.83;101445.34;2082757;28;20068;-69
2023/05/22 04:01:16;;;;;;;4.82;2.65;;;;;;;15.99;61.52;101449.25;2093264;28;20792;-68
2023/05/22 04:02:25;;;;;;;7.38;2.78;;;;;;;16.07;61.30;101442.34;2091056;28;20032;-68
2023/05/22 04:03:29;;;;;;;8.00;2.58;;;;;;;16.16;61.23;101440.56;2085666;28;20137;-68
2023/05/22 04:04:37;;;;;;;5.85;2.53;;;;;;;16.26;61.04;101439.63;2075718;28;20033;-68
2023/05/22 04:05:41;;;;;;;7.97;2.70;;;;;;;16.37;60.68;101435.66;2084138;28;20836;-68
2023/05/22 04:06:44;;;;;;;10.27;3.10;;;;;;;16.42;60.63;101441.81;2082422;28;20061;-68
2023/05/22 04:07:50;;;;;;;10.35;3.33;;;;;;;16.53;60.41;101447.88;2089506;28;20049;-68
2023/05/22 04:08:55;;;;;;;12.70;3.60;;;;;;;16.63;60.43;101441.47;2093830;28;20061;-68
2023/05/22 04:09:56;;;;;;;12.93;4.28;;;;;;;16.69;60.23;101443.78;2091062;28;20041;-68
2023/05/22 04:10:58;;;;;;;20.05;3.67;;;;;;;16.76;60.14;101440.72;2082132;28;20029;-68
2023/05/22 04:12:02;;;;;;;15.88;3.47;;;;;;;16.84;60.22;101440.03;2092206;28;20029;-69
2023/05/22 04:13:06;;;;;;;8.65;2.92;;;;;;;16.99;60.18;101446.28;2104593;28;20032;-68
2023/05/22 04:14:08;;;;;;;6.32;2.70;;;;;;;17.13;59.46;101436.25;2107575;28;20732;-69
2023/05/22 04:15:13;;;;;;;6.80;2.85;;;;;;;17.24;58.33;101439.56;2106817;28;20025;-68
2023/05/22 04:16:16;;;;;;;6.60;2.58;;;;;;;17.34;57.71;101433.94;2098179;28;20022;-68
2023/05/22 04:17:19;;;;;;;5.80;2.38;;;;;;;17.46;57.44;101434.22;2083132;28;20105;-67
2023/05/22 04:18:21;;;;;;;3.92;2.28;;;;;;;17.59;58.42;101433.41;2074057;28;20034;-68
2023/05/22 04:19:26;;;;;;;4.60;2.50;;;;;;;17.66;57.42;101430.28;2088566;28;20030;-67
2023/05/22 04:20:28;;;;;;;6.13;2.50;;;;;;;17.75;56.87;101433.09;2098238;28;20064;-69
2023/05/22 04:21:33;;;;;;;7.13;2.42;;;;;;;17.83;56.63;101432.38;2090296;28;20726;-70
2023/05/22 04:22:37;;;;;;;10.10;2.60;;;;;;;17.89;56.13;101431.16;2083064;28;21058;-72
2023/05/22 04:23:42;;;;;;;4.75;2.10;;;;;;;17.95;55.96;101432.66;2093439;28;20044;-68
2023/05/22 04:24:47;;;;;;;9.50;2.85;;;;;;;18.05;56.39;101437.06;2111585;28;20098;-67
2023/05/22 04:25:50;;;;;;;7.30;2.70;;;;;;;18.15;56.44;101425.94;2098230;28;20130;-68
2023/05/22 04:26:58;;;;;;;14.13;3.47;;;;;;;18.28;55.99;101433.25;2099850;28;21246;-68
2023/05/22 04:28:05;;;;;;;8.65;3.15;;;;;;;18.47;55.82;101440.41;2097678;28;20045;-69
2023/05/22 04:29:09;;;;;;;14.45;3.50;;;;;;;18.70;55.20;101430.31;2099882;28;20159;-69
2023/05/22 04:30:15;;;;;;;8.55;2.90;;;;;;;18.91;54.17;101430.59;2106919;28;20039;-68
2023/05/22 04:31:23;;;;;;;10.77;2.58;;;;;;;19.11;53.72;101424.63;2106630;28;20117;-68
2023/05/22 04:32:28;;;;;;;6.43;3.10;;;;;;;19.32;53.17;101429.47;2107362;28;20039;-70
2023/05/22 04:33:33;;;;;;;9.98;3.05;;;;;;;19.45;53.12;101421.19;2107065;28;20051;-70
2023/05/22 04:34:36;;;;;;;7.13;2.92;;;;;;;19.60;52.73;101419.13;2116059;27;20097;-70
2023/05/22 04:35:39;;;;;;;6.63;2.78;;;;;;;19.78;52.67;101422.72;2106411;28;20024;-70
2023/05/22 04:36:43;;;;;;;11.43;3.20;;;;;;;20.01;51.75;101426.88;2090533;28;20025;-69
2023/05/22 04:37:46;;;;;;;7.07;2.58;;;;;;;20.19;50.49;101424.97;2082712;28;20061;-69
2023/05/22 04:38:47;;;;;;;8.65;3.20;;;;;;;20.38;50.16;101416.44;2090447;28;20871;-69
2023/05/22 04:39:52;;;;;;;6.93;3.30;;;;;;;20.57;49.81;101414.16;2089961;28;20017;-67
2023/05/22 04:40:54;;;;;;;6.82;3.03;;;;;;;20.74;49.59;101412.50;2082433;28;20022;-68
2023/05/22 04:41:57;;;;;;;10.82;3.20;;;;;;;20.87;49.09;101411.53;2077677;28;20919;-67
2023/05/22 04:42:59;;;;;;;5.32;2.88;;;;;;;21.07;49.32;101409.97;2080491;28;20082;-68
2023/05/22 04:44:02;;;;;;;8.30;3.08;;;;;;;21.22;48.60;101409.44;2097083;28;20164;-67
2023/05/22 04:45:12;;;;;;;6.53;3.28;;;;;;;21.32;48.41;101424.66;2087570;28;20749;-68
2023/05/22 04:46:17;;;;;;;19.27;4.60;;;;;;;21.37;47.68;101420.94;2090602;28;20072;-71
2023/05/22 04:47:21;;;;;;;11.88;3.45;;;;;;;21.40;47.17;101418.34;2088773;28;20876;-70
2023/05/22 04:48:23;;;;;;;8.45;2.75;;;;;;;21.52;46.95;101423.91;2081006;28;20038;-70
2023/05/22 04:49:25;;;;;;;11.40;3.75;;;;;;;21.71;46.99;101415.25;2064780;28;20205;-69
2023/05/22 04:50:29;;;;;;;9.75;3.22;;;;;;;21.89;46.53;101423.34;2072601;28;20085;-67
2023/05/22 04:51:31;;;;;;;11.45;3.17;;;;;;;22.01;46.94;101417.94;2089764;28;20029;-66
2023/05/22 04:52:33;;;;;;;7.90;3.50;;;;;;;22.19;46.48;101422.16;2088878;28;20871;-67
2023/05/22 04:53:37;;;;;;;8.10;3.53;;;;;;;22.39;46.08;101415.03;2097632;28;20994;-69
2023/05/22 04:54:40;;;;;;;8.10;3.00;;;;;;;22.58;44.69;101414.50;2096443;28;20222;-67
2023/05/22 04:55:42;;;;;;;7.30;2.88;;;;;;;22.61;44.08;101415.78;2073366;28;20114;-66
2023/05/22 04:56:44;;;;;;;7.22;3.00;;;;;;;22.71;44.43;101415.34;2089213;28;20076;-67
2023/05/22 04:57:46;;;;;;;6.90;2.72;;;;;;;22.79;43.12;101408.97;2072734;28;20880;-66
2023/05/22 04:58:50;;;;;;;5.60;2.75;;;;;;;22.81;43.71;101408.59;2089384;28;20036;-67
2023/05/22 04:59:52;;;;;;;6.47;3.05;;;;;;;22.96;44.04;101415.41;2105563;28;20044;-67
2023/05/22 05:00:56;;;;;;;5.35;2.88;;;;;;;23.17;43.80;101410.63;2080770;28;20752;-68
2023/05/22 05:01:58;;;;;;;9.80;3.20;;;;;;;23.39;43.39;101412.06;2073330;28;21338;-67
2023/05/22 05:03:00;;;;;;;10.57;3.17;;;;;;;23.45;43.61;101423.59;2096638;28;20128;-68
2023/05/22 05:04:02;;;;;;;10.30;3.63;;;;;;;23.53;42.76;101411.72;2106090;28;20779;-67
2023/05/22 05:05:04;;;;;;;10.75;3.53;;;;;;;23.57;42.43;101415.34;2088743;28;20040;-67
2023/05/22 05:06:07;;;;;;;6.97;3.50;;;;;;;23.66;42.61;101418.78;2072721;28;20804;-68
2023/05/22 05:07:08;;;;;;;12.57;3.53;;;;;;;23.74;42.13;101423.38;2081020;28;20100;-67
2023/05/22 05:08:10;;;;;;;10.27;2.95;;;;;;;23.82;41.31;101414.19;2082356;28;20122;-67